Impacts TAF Board
For situational awareness. Not to be used for flight planning purposes.
IDs:

KDTW - Detroit Metro/Wayne, MI, US

Issued at 0835 UTC 16 Jul 2019
Updated at 1104 UTC 16 Jul 2019
Potential Impact None Slight Moderate High
Time1053Z 16/12Z 16/13Z 16/14Z 16/15Z 16/16Z 16/17Z 16/18Z 16/19Z 16/20Z 16/21Z 16/22Z 16/23Z 17/00Z>>
Type OBS PRVL PRVL PRVL PRVL PRVL
  [TEMP]  
PRVL
  [TEMP]  
PRVL
  [TEMP]  
PRVL
  [TEMP]  
PRVL PRVL PRVL PRVL PRVL
VIS 8 >6 >6 >6 >6 >6
  [6]  
>6
  [6]  
>6
  [6]  
>6
  [6]  
>6 >6 >6 >6 >6
CIG 150 250 250 35 35 35
  [25]  
35
  [25]  
35
  [25]  
35
  [25]  
35 35 35 35 35
Cover BKN BKN BKN OVC OVC OVC
  [OVC]  
OVC
  [OVC]  
OVC
  [OVC]  
OVC
  [OVC]  
OVC OVC OVC OVC OVC
FltCat VFR VFR VFR VFR VFR VFR
  [MVFR]  
VFR
  [MVFR]  
VFR
  [MVFR]  
VFR
  [MVFR]  
VFR VFR VFR VFR VFR
WX -- -- -- VCSH VCSH VCSH
  [-RA BR]  
VCSH
  [-RA BR]  
VCSH
  [-RA BR]  
VCSH
  [-RA BR]  
VCSH VCSH VCSH VCSH VCSH
WDir 220 220 220 220 220 220
[220]
220
[220]
220
[220]
220
[220]
220 220 220 220 220
WSpd 5 7 7 13 13 13
  [13]  
13
  [13]  
13
  [13]  
13
  [13]  
13 13 13 13 13
WGst -- -- -- -- -- --
  [--]  
--
  [--]  
--
  [--]  
--
  [--]  
-- -- -- -- --
Raw TAF
KDTW 160835Z 1609/1712 22007KT P6SM SCT100 BKN250
  FM161400 22013KT P6SM VCSH BKN035 OVC080
  TEMPO 1616/1620 6SM -RA BR OVC025
  FM170100 20005KT P6SM BKN035 OVC080


Raw METAR
KDTW 161053Z 22005KT 8SM FEW095 BKN150 BKN220 23/20 A3001 RMK AO2 SLP155 T02330200 $
KDTW 160953Z 20006KT 9SM BKN150 BKN220 23/19 A3000 RMK AO2 SLP154 T02280194 $
KDTW 160853Z 23007KT 8SM SCT120 BKN220 23/19 A2999 RMK AO2 SLP152 T02280194 55008 $

METAR Board
Radar Display
Forecast Discussion
For situational awareness. Not to be used for flight planning purposes.